createdAt,value
2019-04-30T00:00:09.079Z,33.80
2019-04-30T00:03:06.819Z,33.80
2019-04-30T00:05:39.105Z,33.80
2019-04-30T00:08:10.934Z,33.80
2019-04-30T00:10:42.725Z,33.80
2019-04-30T00:13:20.492Z,33.80
2019-04-30T00:15:52.824Z,33.80
2019-04-30T00:18:21.990Z,33.70
2019-04-30T00:20:55.356Z,33.70
2019-04-30T00:23:30.640Z,33.60
2019-04-30T00:26:06.015Z,33.60
2019-04-30T00:28:35.417Z,33.50
2019-04-30T00:31:07.737Z,33.50
2019-04-30T00:33:39.519Z,33.50
2019-04-30T00:36:12.031Z,33.50
2019-04-30T00:38:44.808Z,33.50
2019-04-30T00:41:16.938Z,33.50
2019-04-30T00:43:50.783Z,33.40
2019-04-30T00:46:25.465Z,33.40
2019-04-30T00:49:08.551Z,33.40
2019-04-30T00:51:29.628Z,33.30
2019-04-30T00:54:01.475Z,33.40
2019-04-30T00:56:33.289Z,33.40
2019-04-30T00:59:07.010Z,33.30
2019-04-30T01:01:53.124Z,33.30
2019-04-30T01:04:30.251Z,33.30
2019-04-30T01:07:07.180Z,33.30
2019-04-30T01:09:39.612Z,33.30
2019-04-30T01:12:09.395Z,33.30
2019-04-30T01:14:41.298Z,33.30
2019-04-30T01:17:13.093Z,33.30
2019-04-30T01:19:45.898Z,33.30
2019-04-30T01:22:21.270Z,33.30
2019-04-30T01:24:52.274Z,33.30
2019-04-30T01:27:24.183Z,33.30
2019-04-30T01:29:56.109Z,33.30
2019-04-30T01:32:28.509Z,33.30
2019-04-30T01:35:00.565Z,33.30
2019-04-30T01:37:32.907Z,33.30
2019-04-30T01:40:10.637Z,33.30
2019-04-30T01:42:42.925Z,33.30
2019-04-30T01:45:12.662Z,33.30
2019-04-30T01:47:44.623Z,33.30
2019-04-30T01:50:16.492Z,33.30
2019-04-30T01:52:54.437Z,33.30
2019-04-30T01:55:38.969Z,33.30
2019-04-30T01:58:30.256Z,33.30
2019-04-30T02:01:06.617Z,33.30
2019-04-30T02:03:40.077Z,33.30
2019-04-30T02:06:12.200Z,33.30
2019-04-30T02:08:44.025Z,33.30
2019-04-30T02:11:15.787Z,33.30
2019-04-30T02:13:49.179Z,33.30
2019-04-30T02:16:21.310Z,33.20
2019-04-30T02:18:53.302Z,33.20
2019-04-30T02:21:25.103Z,33.30
2019-04-30T02:23:58.806Z,33.30
2019-04-30T02:26:30.370Z,33.20
2019-04-30T02:29:02.145Z,33.20
2019-04-30T02:31:33.962Z,33.20
2019-04-30T02:34:21.831Z,33.30
2019-04-30T02:37:06.094Z,33.30
2019-04-30T02:39:40.333Z,33.30
2019-04-30T02:42:13.973Z,33.30
2019-04-30T02:44:50.398Z,33.30
2019-04-30T02:47:25.342Z,33.30
2019-04-30T02:50:14.392Z,33.30
2019-04-30T02:52:37.234Z,33.30
2019-04-30T02:55:13.576Z,33.30
2019-04-30T02:57:45.340Z,33.30
2019-04-30T03:00:20.726Z,33.30
2019-04-30T03:02:52.844Z,33.30
2019-04-30T03:05:24.705Z,33.20
2019-04-30T03:07:56.492Z,33.20
2019-04-30T03:10:30.394Z,33.10
2019-04-30T03:13:01.784Z,33.10
2019-04-30T03:15:33.745Z,33.10
2019-04-30T03:18:26.355Z,33.00
2019-04-30T03:21:11.670Z,32.90
2019-04-30T03:23:43.822Z,32.90
2019-04-30T03:26:15.641Z,32.90
2019-04-30T03:28:49.303Z,32.90
2019-04-30T03:31:22.447Z,32.80
2019-04-30T03:33:54.465Z,32.80
2019-04-30T03:36:26.511Z,32.80
2019-04-30T03:39:00.031Z,32.70
2019-04-30T03:41:33.607Z,32.70
2019-04-30T03:44:20.917Z,32.70
2019-04-30T03:46:40.550Z,32.70
2019-04-30T03:49:13.414Z,32.70
2019-04-30T03:51:46.184Z,32.60
2019-04-30T03:54:19.269Z,32.60
2019-04-30T03:56:53.093Z,32.60
2019-04-30T03:59:24.862Z,32.60
2019-04-30T04:02:16.502Z,32.60
2019-04-30T04:04:52.903Z,32.60
2019-04-30T04:07:49.815Z,32.60
2019-04-30T04:10:45.276Z,32.60
2019-04-30T04:13:19.626Z,32.60
2019-04-30T04:15:50.594Z,32.70
2019-04-30T04:18:22.414Z,32.70
2019-04-30T04:21:07.680Z,32.70
2019-04-30T04:23:32.308Z,32.70
2019-04-30T04:26:01.314Z,32.80
2019-04-30T04:28:33.085Z,32.80
2019-04-30T04:31:04.902Z,32.90
2019-04-30T04:33:39.393Z,32.90
2019-04-30T04:36:10.240Z,33.00
2019-04-30T04:38:42.122Z,33.00
2019-04-30T04:41:13.888Z,33.10
2019-04-30T04:43:45.964Z,33.10
2019-04-30T04:46:20.333Z,33.10
2019-04-30T04:48:51.203Z,33.20
2019-04-30T04:51:34.472Z,33.30
2019-04-30T04:53:56.459Z,33.30
2019-04-30T04:56:30.445Z,33.40
2019-04-30T04:59:01.672Z,33.40
2019-04-30T05:01:33.462Z,33.50
2019-04-30T05:04:05.627Z,33.50
2019-04-30T05:06:39.408Z,33.50
2019-04-30T05:09:10.917Z,33.60
2019-04-30T05:11:42.717Z,33.60
2019-04-30T05:14:14.491Z,33.60
2019-04-30T05:16:46.321Z,33.70
2019-04-30T05:19:18.647Z,33.70
2019-04-30T05:21:51.738Z,33.60
2019-04-30T05:24:23.567Z,33.40
2019-04-30T05:26:55.336Z,33.40
2019-04-30T05:29:28.795Z,33.60
2019-04-30T05:32:00.611Z,33.40
2019-04-30T05:34:32.383Z,33.40
2019-04-30T05:37:04.169Z,33.20
2019-04-30T05:39:35.944Z,33.40
2019-04-30T05:42:08.830Z,33.40
2019-04-30T05:44:40.809Z,33.40
2019-04-30T05:47:12.589Z,33.60
2019-04-30T05:49:44.348Z,33.80
2019-04-30T05:52:16.139Z,34.10
2019-04-30T05:54:48.866Z,34.30
2019-04-30T05:57:20.797Z,34.30
2019-04-30T05:59:52.593Z,34.50
2019-04-30T06:02:24.482Z,34.60
2019-04-30T06:04:56.392Z,34.70
2019-04-30T06:07:29.823Z,34.60
2019-04-30T06:10:25.208Z,34.70
2019-04-30T06:13:05.169Z,34.60
2019-04-30T06:15:53.025Z,34.80
2019-04-30T06:18:24.924Z,34.90
2019-04-30T06:20:56.725Z,34.80
2019-04-30T06:23:29.357Z,35.00
2019-04-30T06:26:09.725Z,35.20
2019-04-30T06:28:36.904Z,35.40
2019-04-30T06:31:09.101Z,35.30
2019-04-30T06:33:41.250Z,35.40
2019-04-30T06:36:13.447Z,35.20
2019-04-30T06:38:45.237Z,35.20
2019-04-30T06:41:17.516Z,34.70
2019-04-30T06:43:50.294Z,34.80
2019-04-30T06:46:22.112Z,35.10
2019-04-30T06:48:54.899Z,35.10
2019-04-30T06:51:26.689Z,35.30
2019-04-30T06:53:58.713Z,35.40
2019-04-30T06:56:32.011Z,35.70
2019-04-30T06:59:03.770Z,35.30
2019-04-30T07:01:35.600Z,35.50
2019-04-30T07:04:07.484Z,35.30
2019-04-30T07:06:43.900Z,34.90
2019-04-30T07:09:33.560Z,34.80
2019-04-30T07:12:25.554Z,34.70
2019-04-30T07:14:49.434Z,35.10
2019-04-30T07:17:21.904Z,35.30
2019-04-30T07:19:56.730Z,35.40
2019-04-30T07:22:39.403Z,35.30
2019-04-30T07:25:00.966Z,35.30
2019-04-30T07:27:32.852Z,35.50
2019-04-30T07:30:04.962Z,35.10
2019-04-30T07:32:38.696Z,35.40
2019-04-30T07:35:10.428Z,35.20
2019-04-30T07:37:42.205Z,35.30
2019-04-30T07:40:14.391Z,35.70
2019-04-30T07:42:46.157Z,35.90
2019-04-30T07:45:19.475Z,36.20
2019-04-30T07:47:51.580Z,35.70
2019-04-30T07:50:24.036Z,35.30
2019-04-30T07:53:04.775Z,35.10
2019-04-30T07:55:30.011Z,35.30
2019-04-30T07:58:01.793Z,35.20
2019-04-30T08:00:33.578Z,35.30
2019-04-30T08:03:31.267Z,35.60
2019-04-30T08:06:04.290Z,35.70
2019-04-30T08:08:37.194Z,36.00
2019-04-30T08:11:09.332Z,36.40
2019-04-30T08:13:43.315Z,36.10
2019-04-30T08:16:15.656Z,36.30
2019-04-30T08:18:49.238Z,36.20
2019-04-30T08:21:20.949Z,36.10
2019-04-30T08:23:52.718Z,35.40
2019-04-30T08:26:24.515Z,35.70
2019-04-30T08:28:56.517Z,35.90
2019-04-30T08:31:29.258Z,36.40
2019-04-30T08:34:02.563Z,36.80
2019-04-30T08:36:34.369Z,37.10
2019-04-30T08:39:09.664Z,37.00
2019-04-30T08:41:41.619Z,37.10
2019-04-30T08:44:13.744Z,37.20
2019-04-30T08:46:45.540Z,37.50
2019-04-30T08:49:19.247Z,37.20
2019-04-30T08:51:51.219Z,37.30
2019-04-30T08:54:23.527Z,36.90
2019-04-30T08:56:55.667Z,36.90
2019-04-30T08:59:29.472Z,36.20
2019-04-30T09:02:12.924Z,36.20
2019-04-30T09:04:35.279Z,36.70
2019-04-30T09:07:10.124Z,36.80
2019-04-30T09:09:40.938Z,36.90
2019-04-30T09:12:14.328Z,36.80
2019-04-30T09:14:48.869Z,36.90
2019-04-30T09:17:20.153Z,36.80
2019-04-30T09:19:52.032Z,37.10
2019-04-30T09:22:23.783Z,37.40
2019-04-30T09:24:55.896Z,37.50
2019-04-30T09:27:29.420Z,37.70
2019-04-30T09:30:01.588Z,37.90
2019-04-30T09:32:33.659Z,38.10
2019-04-30T09:35:06.137Z,38.20
2019-04-30T09:37:39.026Z,37.90
2019-04-30T09:40:17.957Z,37.60
2019-04-30T09:42:45.460Z,37.30
2019-04-30T09:45:18.712Z,37.40
2019-04-30T09:47:50.916Z,36.80
2019-04-30T09:50:22.893Z,37.20
2019-04-30T09:52:54.785Z,37.40
2019-04-30T09:55:28.918Z,37.30
2019-04-30T09:58:00.330Z,37.70
2019-04-30T10:00:32.088Z,38.10
2019-04-30T10:03:04.367Z,38.30
2019-04-30T10:05:36.477Z,38.30
2019-04-30T10:08:08.493Z,38.40
2019-04-30T10:10:49.595Z,38.50
2019-04-30T10:13:21.455Z,38.60
2019-04-30T10:16:09.778Z,38.70
2019-04-30T10:18:42.986Z,38.90
2019-04-30T10:21:14.836Z,38.70
2019-04-30T10:23:46.624Z,38.90
2019-04-30T10:26:18.759Z,38.90
2019-04-30T10:28:53.189Z,38.80
2019-04-30T10:31:25.447Z,38.80
2019-04-30T10:33:58.584Z,38.70
2019-04-30T10:36:32.005Z,38.70
2019-04-30T10:39:05.652Z,38.70
2019-04-30T10:41:39.500Z,38.70
2019-04-30T10:44:11.821Z,38.60
2019-04-30T10:46:43.714Z,38.50
2019-04-30T10:49:15.869Z,38.30
2019-04-30T10:51:47.631Z,38.50
2019-04-30T10:54:26.047Z,38.30
2019-04-30T10:56:52.946Z,38.40
2019-04-30T10:59:25.035Z,38.40
2019-04-30T11:01:56.810Z,38.40
2019-04-30T11:04:29.126Z,38.50
2019-04-30T11:07:00.961Z,38.70
2019-04-30T11:09:33.923Z,38.70
2019-04-30T11:12:06.766Z,38.70
2019-04-30T11:14:38.877Z,38.80
2019-04-30T11:17:11.144Z,38.90
2019-04-30T11:19:43.624Z,39.00
2019-04-30T11:22:15.878Z,39.10
2019-04-30T11:24:58.355Z,39.10
2019-04-30T11:27:22.365Z,39.10
2019-04-30T11:30:01.494Z,39.00
2019-04-30T11:32:28.631Z,38.80
2019-04-30T11:35:00.620Z,38.80
2019-04-30T11:37:32.547Z,38.80
2019-04-30T11:40:05.016Z,38.80
2019-04-30T11:42:36.837Z,38.80
2019-04-30T11:45:10.073Z,38.60
2019-04-30T11:47:53.072Z,38.70
2019-04-30T11:50:17.109Z,38.60
2019-04-30T11:52:49.041Z,38.10
2019-04-30T11:55:21.163Z,37.80
2019-04-30T11:57:52.970Z,37.70
2019-04-30T12:00:32.491Z,37.70
2019-04-30T12:03:04.385Z,37.30
2019-04-30T12:05:36.462Z,37.60
2019-04-30T12:08:14.732Z,37.30
2019-04-30T12:11:08.678Z,36.70
2019-04-30T12:13:40.541Z,37.20
2019-04-30T12:16:12.603Z,37.90
2019-04-30T12:18:44.443Z,37.80
2019-04-30T12:21:16.406Z,38.10
2019-04-30T12:23:48.188Z,38.30
2019-04-30T12:26:20.061Z,38.60
2019-04-30T12:28:53.100Z,38.80
2019-04-30T12:31:25.191Z,39.10
2019-04-30T12:33:57.029Z,39.10
2019-04-30T12:36:29.161Z,39.20
2019-04-30T12:39:01.021Z,39.30
2019-04-30T12:41:34.684Z,39.50
2019-04-30T12:44:06.649Z,39.70
2019-04-30T12:46:38.775Z,39.10
2019-04-30T12:49:12.670Z,38.60
2019-04-30T12:52:15.316Z,38.30
2019-04-30T12:54:54.543Z,38.40
2019-04-30T12:57:33.461Z,38.60
2019-04-30T13:00:09.314Z,38.60
2019-04-30T13:02:41.952Z,39.10
2019-04-30T13:05:14.838Z,39.70
2019-04-30T13:07:47.460Z,40.30
2019-04-30T13:10:21.633Z,40.90
2019-04-30T13:12:54.561Z,41.30
2019-04-30T13:15:26.701Z,41.70
2019-04-30T13:17:58.656Z,41.70
2019-04-30T13:20:31.592Z,41.60
2019-04-30T13:23:03.469Z,41.50
2019-04-30T13:25:35.745Z,40.80
2019-04-30T13:28:13.705Z,40.30
2019-04-30T13:30:45.513Z,39.80
2019-04-30T13:33:32.639Z,39.60
2019-04-30T13:36:04.541Z,39.90
2019-04-30T13:38:51.710Z,40.60
2019-04-30T13:41:51.083Z,41.30
2019-04-30T13:44:29.300Z,41.80
2019-04-30T13:47:01.068Z,42.30
2019-04-30T13:49:32.826Z,42.30
2019-04-30T13:52:04.772Z,42.00
2019-04-30T13:54:36.787Z,41.90
2019-04-30T13:57:09.145Z,41.80
2019-04-30T13:59:40.966Z,41.60
2019-04-30T14:02:13.121Z,41.30
2019-04-30T14:05:02.206Z,41.10
2019-04-30T14:08:05.520Z,41.10
2019-04-30T14:10:41.444Z,41.70
2019-04-30T14:13:13.535Z,42.50
2019-04-30T14:15:47.947Z,43.40
2019-04-30T14:18:28.568Z,44.40
2019-04-30T14:20:53.557Z,45.10
2019-04-30T14:23:25.405Z,45.60
2019-04-30T14:26:00.926Z,46.40
2019-04-30T14:28:30.953Z,46.90
2019-04-30T14:31:02.774Z,47.20
2019-04-30T14:33:34.681Z,46.50
2019-04-30T14:36:06.476Z,46.70
2019-04-30T14:38:40.503Z,46.50
2019-04-30T14:41:12.778Z,46.10
2019-04-30T14:43:50.920Z,45.50
2019-04-30T14:46:42.879Z,44.90
2019-04-30T14:49:35.973Z,44.20
2019-04-30T14:52:09.329Z,43.60
2019-04-30T14:54:52.496Z,43.10
2019-04-30T14:57:55.584Z,43.00
2019-04-30T15:00:41.442Z,43.40
2019-04-30T15:03:14.507Z,43.70
2019-04-30T15:05:49.398Z,44.50
2019-04-30T15:08:20.057Z,44.90
2019-04-30T15:10:51.941Z,45.00
2019-04-30T15:13:23.725Z,44.90
2019-04-30T15:15:55.558Z,44.40
2019-04-30T15:18:29.049Z,44.10
2019-04-30T15:21:00.970Z,43.90
2019-04-30T15:23:44.315Z,43.80
2019-04-30T15:26:22.174Z,43.90
2019-04-30T15:28:49.960Z,44.00
2019-04-30T15:31:22.829Z,44.40
2019-04-30T15:34:02.982Z,44.10
2019-04-30T15:36:33.722Z,44.20
2019-04-30T15:39:39.101Z,43.50
2019-04-30T15:42:12.131Z,43.20
2019-04-30T15:44:45.842Z,42.50
2019-04-30T15:47:18.922Z,41.80
2019-04-30T15:49:50.961Z,41.20
2019-04-30T15:52:22.878Z,40.90
2019-04-30T15:54:54.728Z,40.80
2019-04-30T15:57:26.632Z,40.80
2019-04-30T15:59:58.434Z,41.10
2019-04-30T16:02:56.350Z,41.60
2019-04-30T16:05:33.191Z,42.00
2019-04-30T16:08:36.195Z,42.70
2019-04-30T16:11:25.506Z,43.10
2019-04-30T16:14:14.367Z,43.40
2019-04-30T16:16:51.497Z,43.90
2019-04-30T16:19:24.551Z,44.00
2019-04-30T16:21:56.592Z,44.00
2019-04-30T16:24:28.866Z,44.00
2019-04-30T16:27:01.031Z,43.80
2019-04-30T16:29:33.072Z,43.40
2019-04-30T16:32:05.234Z,43.20
2019-04-30T16:34:39.014Z,42.90
2019-04-30T16:37:10.929Z,42.60
2019-04-30T16:39:42.952Z,42.40
2019-04-30T16:42:14.861Z,42.10
2019-04-30T16:44:46.913Z,42.20
2019-04-30T16:47:19.906Z,42.10
2019-04-30T16:49:52.501Z,42.00
2019-04-30T16:52:24.358Z,42.00
2019-04-30T16:54:56.153Z,41.70
2019-04-30T16:57:30.181Z,41.50
2019-04-30T17:00:01.529Z,41.40
2019-04-30T17:02:34.867Z,41.10
2019-04-30T17:05:19.805Z,40.80
2019-04-30T17:08:09.446Z,40.30
2019-04-30T17:10:50.522Z,39.90
2019-04-30T17:13:41.229Z,39.60
2019-04-30T17:16:16.592Z,39.40
2019-04-30T17:18:49.918Z,39.20
2019-04-30T17:21:22.070Z,38.90
2019-04-30T17:23:53.870Z,38.60
2019-04-30T17:26:25.744Z,38.40
2019-04-30T17:28:59.738Z,38.30
2019-04-30T17:31:31.564Z,38.20
2019-04-30T17:34:03.418Z,38.00
2019-04-30T17:36:35.307Z,37.90
2019-04-30T17:39:11.989Z,37.90
2019-04-30T17:41:44.027Z,37.80
2019-04-30T17:44:15.833Z,37.60
2019-04-30T17:46:50.221Z,37.50
2019-04-30T17:49:22.180Z,37.50
2019-04-30T17:51:54.253Z,37.30
2019-04-30T17:54:26.193Z,37.20
2019-04-30T17:56:58.031Z,37.10
2019-04-30T17:59:29.843Z,37.00
2019-04-30T18:02:03.986Z,36.90
2019-04-30T18:04:35.994Z,36.80
2019-04-30T18:07:09.911Z,36.70
2019-04-30T18:09:41.575Z,36.60
2019-04-30T18:12:13.526Z,36.60
2019-04-30T18:14:45.477Z,36.50
2019-04-30T18:17:17.496Z,36.40
2019-04-30T18:20:06.811Z,36.40
2019-04-30T18:22:53.333Z,36.30
2019-04-30T18:25:33.761Z,36.20
2019-04-30T18:28:05.771Z,36.20
2019-04-30T18:30:39.120Z,36.10
2019-04-30T18:33:11.517Z,36.10
2019-04-30T18:35:43.585Z,36.00
2019-04-30T18:38:17.732Z,35.90
2019-04-30T18:40:50.450Z,35.90
2019-04-30T18:43:22.675Z,35.80
2019-04-30T18:45:54.458Z,35.70
2019-04-30T18:48:29.388Z,35.70
2019-04-30T18:51:01.111Z,35.60
2019-04-30T18:53:34.830Z,35.50
2019-04-30T18:56:12.190Z,35.40
2019-04-30T18:58:43.116Z,35.30
2019-04-30T19:01:14.377Z,35.30
2019-04-30T19:03:46.317Z,35.20
2019-04-30T19:06:26.073Z,35.20
2019-04-30T19:09:29.664Z,35.20
2019-04-30T19:12:12.371Z,35.50
2019-04-30T19:15:03.339Z,35.60
2019-04-30T19:18:12.128Z,35.60
2019-04-30T19:20:46.823Z,35.60
2019-04-30T19:23:19.099Z,35.70
2019-04-30T19:25:51.258Z,35.60
2019-04-30T19:28:23.029Z,35.60
2019-04-30T19:30:58.116Z,35.50
2019-04-30T19:33:30.790Z,35.50
2019-04-30T19:36:02.260Z,35.40
2019-04-30T19:38:34.081Z,35.40
2019-04-30T19:41:06.183Z,35.40
2019-04-30T19:43:39.111Z,35.30
2019-04-30T19:46:11.850Z,35.20
2019-04-30T19:48:44.060Z,35.00
2019-04-30T19:51:16.149Z,34.90
2019-04-30T19:53:49.014Z,34.80
2019-04-30T19:56:21.642Z,34.70
2019-04-30T19:59:01.970Z,34.60
2019-04-30T20:01:28.699Z,34.50
2019-04-30T20:04:01.573Z,34.40
2019-04-30T20:06:34.815Z,34.40
2019-04-30T20:09:08.937Z,34.30
2019-04-30T20:11:43.993Z,34.30
2019-04-30T20:14:16.044Z,34.30
2019-04-30T20:16:48.683Z,34.30
2019-04-30T20:19:20.897Z,34.30
2019-04-30T20:21:53.934Z,34.30
2019-04-30T20:24:25.898Z,34.20
2019-04-30T20:27:06.393Z,34.20
2019-04-30T20:29:33.744Z,34.10
2019-04-30T20:32:05.851Z,34.10
2019-04-30T20:34:39.200Z,34.00
2019-04-30T20:37:12.518Z,33.90
2019-04-30T20:39:50.576Z,33.90
2019-04-30T20:42:23.698Z,33.80
2019-04-30T20:44:55.667Z,33.80
2019-04-30T20:47:30.042Z,33.80
2019-04-30T20:50:01.792Z,33.80
2019-04-30T20:52:33.947Z,33.80
2019-04-30T20:55:06.163Z,33.80
2019-04-30T20:57:39.648Z,33.70
2019-04-30T21:00:12.660Z,33.70
2019-04-30T21:02:44.623Z,33.70
2019-04-30T21:05:16.466Z,33.60
2019-04-30T21:07:48.732Z,33.60
2019-04-30T21:10:21.124Z,33.50
2019-04-30T21:12:53.051Z,33.40
2019-04-30T21:15:25.784Z,33.40
2019-04-30T21:17:58.726Z,33.40
2019-04-30T21:20:32.284Z,33.30
2019-04-30T21:23:04.701Z,33.30
2019-04-30T21:25:38.589Z,33.20
2019-04-30T21:28:10.108Z,33.20
2019-04-30T21:30:42.040Z,33.20
2019-04-30T21:33:38.492Z,33.20
2019-04-30T21:36:19.332Z,33.10
2019-04-30T21:38:51.316Z,33.10
2019-04-30T21:41:23.195Z,33.10
2019-04-30T21:43:55.023Z,33.10
2019-04-30T21:46:29.353Z,33.00
2019-04-30T21:49:01.657Z,33.00
2019-04-30T21:51:33.446Z,33.00
2019-04-30T21:54:05.312Z,33.00
2019-04-30T21:56:37.885Z,33.00
2019-04-30T21:59:09.769Z,32.90
2019-04-30T22:01:43.211Z,32.70
2019-04-30T22:04:16.024Z,32.70
2019-04-30T22:06:49.487Z,32.70
2019-04-30T22:09:21.834Z,32.70
2019-04-30T22:11:53.587Z,32.60
2019-04-30T22:14:25.694Z,32.70
2019-04-30T22:16:59.277Z,32.70
2019-04-30T22:19:32.316Z,32.70
2019-04-30T22:22:04.471Z,32.70
2019-04-30T22:24:38.755Z,32.80
2019-04-30T22:27:10.282Z,32.80
2019-04-30T22:29:42.413Z,32.80
2019-04-30T22:32:14.830Z,32.80
2019-04-30T22:34:47.270Z,32.80
2019-04-30T22:37:19.527Z,32.80
2019-04-30T22:39:59.383Z,32.70
2019-04-30T22:42:34.029Z,32.70
2019-04-30T22:45:38.266Z,32.60
2019-04-30T22:48:11.033Z,32.60
2019-04-30T22:50:42.924Z,32.60
2019-04-30T22:53:14.727Z,32.60
2019-04-30T22:55:46.802Z,32.60
2019-04-30T22:58:18.613Z,32.60
2019-04-30T23:00:52.274Z,32.60
2019-04-30T23:03:32.160Z,32.60
2019-04-30T23:06:04.136Z,32.60
2019-04-30T23:08:35.980Z,32.50
2019-04-30T23:11:08.165Z,32.60
2019-04-30T23:13:39.942Z,32.50
2019-04-30T23:16:13.380Z,32.50
2019-04-30T23:18:45.241Z,32.50
2019-04-30T23:21:17.307Z,32.40
2019-04-30T23:23:49.599Z,32.40
2019-04-30T23:26:22.420Z,32.40
2019-04-30T23:28:54.173Z,32.40
2019-04-30T23:31:26.099Z,32.30
2019-04-30T23:33:58.125Z,32.40
2019-04-30T23:36:30.793Z,32.30
2019-04-30T23:39:02.595Z,32.30
2019-04-30T23:41:37.600Z,32.30
2019-04-30T23:44:09.560Z,32.30
2019-04-30T23:46:41.411Z,32.30
2019-04-30T23:49:13.447Z,32.30
2019-04-30T23:54:22.609Z,32.20
2019-04-30T23:56:54.356Z,32.20
2019-04-30T23:59:26.372Z,32.20
